sensor_id;sensor_type;location;lat;lon;timestamp;pressure;altitude;pressure_sealevel;temperature;humidity
60589;BME280;46421;48.610;9.334;2022-08-19T00:01:37;97613.41;;;18.64;100.00
60589;BME280;46421;48.610;9.334;2022-08-19T00:04:05;97618.59;;;18.42;100.00
60589;BME280;46421;48.610;9.334;2022-08-19T00:06:31;97621.41;;;18.35;100.00
60589;BME280;46421;48.610;9.334;2022-08-19T00:08:57;97635.59;;;18.42;100.00
60589;BME280;46421;48.610;9.334;2022-08-19T00:11:23;97630.41;;;18.41;100.00
60589;BME280;46421;48.610;9.334;2022-08-19T00:13:49;97628.47;;;18.24;100.00
60589;BME280;46421;48.610;9.334;2022-08-19T00:16:15;97616.91;;;18.24;100.00
60589;BME280;46421;48.610;9.334;2022-08-19T00:18:41;97626.00;;;18.35;100.00
60589;BME280;46421;48.610;9.334;2022-08-19T00:21:06;97622.38;;;18.29;100.00
60589;BME280;46421;48.610;9.334;2022-08-19T00:23:31;97614.44;;;18.22;100.00
60589;BME280;46421;48.610;9.334;2022-08-19T00:25:57;97605.34;;;18.11;100.00
60589;BME280;46421;48.610;9.334;2022-08-19T00:28:22;97604.75;;;18.09;100.00
60589;BME280;46421;48.610;9.334;2022-08-19T00:30:47;97599.97;;;18.11;100.00
60589;BME280;46421;48.610;9.334;2022-08-19T00:33:12;97604.25;;;18.24;100.00
60589;BME280;46421;48.610;9.334;2022-08-19T00:35:38;97594.19;;;18.20;100.00
60589;BME280;46421;48.610;9.334;2022-08-19T00:38:04;97595.84;;;18.09;100.00
60589;BME280;46421;48.610;9.334;2022-08-19T00:40:29;97592.47;;;18.01;100.00
60589;BME280;46421;48.610;9.334;2022-08-19T00:42:54;97594.25;;;17.96;100.00
60589;BME280;46421;48.610;9.334;2022-08-19T00:45:22;97599.47;;;17.91;100.00
60589;BME280;46421;48.610;9.334;2022-08-19T00:47:48;97607.66;;;17.84;100.00
60589;BME280;46421;48.610;9.334;2022-08-19T00:50:17;97609.41;;;17.78;100.00
60589;BME280;46421;48.610;9.334;2022-08-19T00:52:46;97611.75;;;17.75;100.00
60589;BME280;46421;48.610;9.334;2022-08-19T00:55:18;97608.38;;;17.79;100.00
60589;BME280;46421;48.610;9.334;2022-08-19T00:57:46;97614.66;;;17.73;100.00
60589;BME280;46421;48.610;9.334;2022-08-19T01:00:15;97613.75;;;17.79;100.00
60589;BME280;46421;48.610;9.334;2022-08-19T01:02:42;97612.56;;;17.75;100.00
60589;BME280;46421;48.610;9.334;2022-08-19T01:05:14;97615.84;;;17.77;100.00
60589;BME280;46421;48.610;9.334;2022-08-19T01:07:41;97612.81;;;17.74;100.00
60589;BME280;46421;48.610;9.334;2022-08-19T01:10:10;97608.47;;;17.84;100.00
60589;BME280;46421;48.610;9.334;2022-08-19T01:12:37;97603.78;;;17.80;100.00
60589;BME280;46421;48.610;9.334;2022-08-19T01:15:05;97603.34;;;17.95;100.00
60589;BME280;46421;48.610;9.334;2022-08-19T01:17:33;97608.50;;;17.96;100.00
60589;BME280;46421;48.610;9.334;2022-08-19T01:19:58;97599.50;;;18.02;100.00
60589;BME280;46421;48.610;9.334;2022-08-19T01:24:49;97596.56;;;18.04;100.00
60589;BME280;46421;48.610;9.334;2022-08-19T01:27:16;97604.75;;;18.09;100.00
60589;BME280;46421;48.610;9.334;2022-08-19T01:29:42;97599.84;;;18.06;100.00
60589;BME280;46421;48.610;9.334;2022-08-19T01:32:10;97596.19;;;17.89;100.00
60589;BME280;46421;48.610;9.334;2022-08-19T01:34:36;97594.69;;;17.93;100.00
60589;BME280;46421;48.610;9.334;2022-08-19T01:37:06;97600.06;;;17.81;100.00
60589;BME280;46421;48.610;9.334;2022-08-19T01:39:32;97599.47;;;17.79;100.00
60589;BME280;46421;48.610;9.334;2022-08-19T01:41:57;97604.72;;;17.74;100.00
60589;BME280;46421;48.610;9.334;2022-08-19T01:44:22;97598.31;;;17.75;100.00
60589;BME280;46421;48.610;9.334;2022-08-19T01:46:48;97594.69;;;17.69;100.00
60589;BME280;46421;48.610;9.334;2022-08-19T01:49:15;97592.44;;;17.66;100.00
60589;BME280;46421;48.610;9.334;2022-08-19T01:51:41;97584.88;;;17.63;100.00
60589;BME280;46421;48.610;9.334;2022-08-19T01:54:08;97595.63;;;17.63;100.00
60589;BME280;46421;48.610;9.334;2022-08-19T01:56:33;97593.72;;;17.63;100.00
60589;BME280;46421;48.610;9.334;2022-08-19T01:59:09;97592.00;;;17.69;100.00
60589;BME280;46421;48.610;9.334;2022-08-19T02:01:35;97595.84;;;17.73;100.00
60589;BME280;46421;48.610;9.334;2022-08-19T02:04:00;97599.47;;;17.79;100.00
60589;BME280;46421;48.610;9.334;2022-08-19T02:06:27;97594.78;;;17.86;100.00
60589;BME280;46421;48.610;9.334;2022-08-19T02:08:53;97596.91;;;17.72;100.00
60589;BME280;46421;48.610;9.334;2022-08-19T02:11:22;97589.19;;;17.76;100.00
60589;BME280;46421;48.610;9.334;2022-08-19T02:13:48;97592.00;;;17.81;100.00
60589;BME280;46421;48.610;9.334;2022-08-19T02:16:13;97597.50;;;17.98;100.00
60589;BME280;46421;48.610;9.334;2022-08-19T02:18:38;97599.84;;;18.06;100.00
60589;BME280;46421;48.610;9.334;2022-08-19T02:21:04;97603.81;;;18.15;100.00
60589;BME280;46421;48.610;9.334;2022-08-19T02:23:29;97606.75;;;18.14;100.00
60589;BME280;46421;48.610;9.334;2022-08-19T02:25:56;97615.84;;;18.13;100.00
60589;BME280;46421;48.610;9.334;2022-08-19T02:28:21;97604.25;;;18.12;100.00
60589;BME280;46421;48.610;9.334;2022-08-19T02:30:47;97600.88;;;18.17;100.00
60589;BME280;46421;48.610;9.334;2022-08-19T02:33:13;97596.78;;;18.14;100.00
60589;BME280;46421;48.610;9.334;2022-08-19T02:35:42;97592.00;;;18.16;100.00
60589;BME280;46421;48.610;9.334;2022-08-19T02:38:08;97586.38;;;18.06;100.00
60589;BME280;46421;48.610;9.334;2022-08-19T02:40:33;97586.63;;;18.05;100.00
60589;BME280;46421;48.610;9.334;2022-08-19T02:42:59;97588.97;;;18.13;100.00
60589;BME280;46421;48.610;9.334;2022-08-19T02:45:24;97590.09;;;18.17;100.00
60589;BME280;46421;48.610;9.334;2022-08-19T02:47:50;97586.44;;;18.35;100.00
60589;BME280;46421;48.610;9.334;2022-08-19T02:50:15;97578.88;;;18.32;100.00
60589;BME280;46421;48.610;9.334;2022-08-19T02:52:40;97581.81;;;18.19;100.00
60589;BME280;46421;48.610;9.334;2022-08-19T02:55:06;97586.97;;;18.20;100.00
60589;BME280;46421;48.610;9.334;2022-08-19T02:57:32;97585.94;;;18.09;100.00
60589;BME280;46421;48.610;9.334;2022-08-19T02:59:58;97587.31;;;18.24;100.00
60589;BME280;46421;48.610;9.334;2022-08-19T03:02:23;97604.03;;;18.26;100.00
60589;BME280;46421;48.610;9.334;2022-08-19T03:04:48;97599.38;;;18.09;100.00
60589;BME280;46421;48.610;9.334;2022-08-19T03:07:15;97598.66;;;18.14;100.00
60589;BME280;46421;48.610;9.334;2022-08-19T03:09:40;97601.34;;;17.90;100.00
60589;BME280;46421;48.610;9.334;2022-08-19T03:12:06;97598.06;;;17.64;100.00
60589;BME280;46421;48.610;9.334;2022-08-19T03:14:32;97593.16;;;17.85;100.00
60589;BME280;46421;48.610;9.334;2022-08-19T03:16:58;97599.94;;;17.76;100.00
60589;BME280;46421;48.610;9.334;2022-08-19T03:19:23;97610.00;;;17.80;100.00
60589;BME280;46421;48.610;9.334;2022-08-19T03:21:50;97614.31;;;17.81;100.00
60589;BME280;46421;48.610;9.334;2022-08-19T03:24:16;97610.81;;;17.93;100.00
60589;BME280;46421;48.610;9.334;2022-08-19T03:26:44;97608.00;;;17.88;100.00
60589;BME280;46421;48.610;9.334;2022-08-19T03:29:10;97599.94;;;17.88;100.00
60589;BME280;46421;48.610;9.334;2022-08-19T03:31:37;97605.34;;;17.88;100.00
60589;BME280;46421;48.610;9.334;2022-08-19T03:34:03;97610.13;;;17.97;100.00
60589;BME280;46421;48.610;9.334;2022-08-19T03:36:28;97611.09;;;18.03;100.00
60589;BME280;46421;48.610;9.334;2022-08-19T03:39:00;97613.16;;;18.13;100.00
60589;BME280;46421;48.610;9.334;2022-08-19T03:41:28;97610.34;;;18.20;100.00
60589;BME280;46421;48.610;9.334;2022-08-19T03:43:54;97607.28;;;18.16;100.00
60589;BME280;46421;48.610;9.334;2022-08-19T03:46:22;97606.41;;;18.10;100.00
60589;BME280;46421;48.610;9.334;2022-08-19T03:48:50;97613.63;;;18.10;100.00
60589;BME280;46421;48.610;9.334;2022-08-19T03:51:18;97608.50;;;18.08;100.00
60589;BME280;46421;48.610;9.334;2022-08-19T03:53:44;97609.78;;;18.06;100.00
60589;BME280;46421;48.610;9.334;2022-08-19T03:56:09;97602.50;;;18.18;100.00
60589;BME280;46421;48.610;9.334;2022-08-19T03:58:35;97609.16;;;17.92;100.00
60589;BME280;46421;48.610;9.334;2022-08-19T04:01:01;97602.75;;;17.93;100.00
60589;BME280;46421;48.610;9.334;2022-08-19T04:03:26;97609.44;;;18.02;100.00
60589;BME280;46421;48.610;9.334;2022-08-19T04:05:52;97605.56;;;17.98;100.00
60589;BME280;46421;48.610;9.334;2022-08-19T04:08:17;97603.56;;;18.05;100.00
60589;BME280;46421;48.610;9.334;2022-08-19T04:10:43;97602.41;;;18.01;100.00
60589;BME280;46421;48.610;9.334;2022-08-19T04:13:08;97609.91;;;17.99;100.00
60589;BME280;46421;48.610;9.334;2022-08-19T04:15:33;97609.09;;;17.98;100.00
60589;BME280;46421;48.610;9.334;2022-08-19T04:17:59;97591.06;;;17.99;100.00
60589;BME280;46421;48.610;9.334;2022-08-19T04:20:24;97597.59;;;17.91;100.00
60589;BME280;46421;48.610;9.334;2022-08-19T04:22:49;97594.34;;;18.01;100.00
60589;BME280;46421;48.610;9.334;2022-08-19T04:25:14;97587.78;;;17.97;100.00
60589;BME280;46421;48.610;9.334;2022-08-19T04:27:40;97586.03;;;17.91;100.00
60589;BME280;46421;48.610;9.334;2022-08-19T04:30:06;97592.72;;;18.00;100.00
60589;BME280;46421;48.610;9.334;2022-08-19T04:32:31;97593.41;;;18.07;100.00
60589;BME280;46421;48.610;9.334;2022-08-19T04:34:56;97597.03;;;17.89;100.00
60589;BME280;46421;48.610;9.334;2022-08-19T04:37:21;97597.75;;;17.96;100.00
60589;BME280;46421;48.610;9.334;2022-08-19T04:39:47;97603.13;;;18.08;100.00
60589;BME280;46421;48.610;9.334;2022-08-19T04:42:13;97597.28;;;18.11;100.00
60589;BME280;46421;48.610;9.334;2022-08-19T04:44:38;97602.75;;;17.93;100.00
60589;BME280;46421;48.610;9.334;2022-08-19T04:47:03;97599.34;;;17.85;100.00
60589;BME280;46421;48.610;9.334;2022-08-19T04:49:29;97606.47;;;17.80;100.00
60589;BME280;46421;48.610;9.334;2022-08-19T04:51:55;97606.13;;;17.76;100.00
60589;BME280;46421;48.610;9.334;2022-08-19T04:54:22;97603.44;;;17.88;100.00
60589;BME280;46421;48.610;9.334;2022-08-19T04:56:57;97609.06;;;17.75;100.00
60589;BME280;46421;48.610;9.334;2022-08-19T04:59:22;97620.66;;;17.99;100.00
60589;BME280;46421;48.610;9.334;2022-08-19T05:01:48;97624.03;;;18.06;100.00
60589;BME280;46421;48.610;9.334;2022-08-19T05:04:13;97636.19;;;17.97;100.00
60589;BME280;46421;48.610;9.334;2022-08-19T05:06:39;97642.38;;;17.85;100.00
60589;BME280;46421;48.610;9.334;2022-08-19T05:09:05;97645.53;;;17.94;100.00
60589;BME280;46421;48.610;9.334;2022-08-19T05:11:36;97645.91;;;17.98;100.00
60589;BME280;46421;48.610;9.334;2022-08-19T05:14:02;97655.72;;;18.04;100.00
60589;BME280;46421;48.610;9.334;2022-08-19T05:16:27;97667.91;;;18.07;100.00
60589;BME280;46421;48.610;9.334;2022-08-19T05:18:53;97674.44;;;17.99;100.00
60589;BME280;46421;48.610;9.334;2022-08-19T05:21:19;97675.28;;;18.11;100.00
60589;BME280;46421;48.610;9.334;2022-08-19T05:23:45;97683.78;;;18.20;100.00
60589;BME280;46421;48.610;9.334;2022-08-19T05:26:10;97688.72;;;18.23;100.00
60589;BME280;46421;48.610;9.334;2022-08-19T05:28:36;97692.56;;;18.15;100.00
60589;BME280;46421;48.610;9.334;2022-08-19T05:31:01;97703.78;;;18.12;100.00
60589;BME280;46421;48.610;9.334;2022-08-19T05:33:26;97702.00;;;17.94;100.00
60589;BME280;46421;48.610;9.334;2022-08-19T05:35:52;97702.00;;;17.94;100.00
60589;BME280;46421;48.610;9.334;2022-08-19T05:38:17;97696.53;;;18.01;100.00
60589;BME280;46421;48.610;9.334;2022-08-19T05:40:43;97688.19;;;17.79;100.00
60589;BME280;46421;48.610;9.334;2022-08-19T05:43:08;97696.56;;;17.70;100.00
60589;BME280;46421;48.610;9.334;2022-08-19T05:45:38;97694.25;;;17.74;100.00
60589;BME280;46421;48.610;9.334;2022-08-19T05:48:04;97706.91;;;17.85;100.00
60589;BME280;46421;48.610;9.334;2022-08-19T05:50:29;97703.28;;;17.92;100.00
60589;BME280;46421;48.610;9.334;2022-08-19T05:52:54;97703.84;;;17.82;100.00
60589;BME280;46421;48.610;9.334;2022-08-19T05:55:20;97702.66;;;17.78;100.00
60589;BME280;46421;48.610;9.334;2022-08-19T05:57:46;97702.31;;;17.74;100.00
60589;BME280;46421;48.610;9.334;2022-08-19T06:00:12;97709.34;;;17.87;100.00
60589;BME280;46421;48.610;9.334;2022-08-19T06:02:38;97704.91;;;17.93;100.00
60589;BME280;46421;48.610;9.334;2022-08-19T06:05:05;97716.28;;;17.95;100.00
60589;BME280;46421;48.610;9.334;2022-08-19T06:07:31;97705.63;;;17.88;100.00
60589;BME280;46421;48.610;9.334;2022-08-19T06:09:56;97720.47;;;17.91;100.00
60589;BME280;46421;48.610;9.334;2022-08-19T06:12:21;97707.06;;;18.02;100.00
60589;BME280;46421;48.610;9.334;2022-08-19T06:14:47;97715.25;;;17.96;100.00
60589;BME280;46421;48.610;9.334;2022-08-19T06:17:12;97713.44;;;17.90;100.00
60589;BME280;46421;48.610;9.334;2022-08-19T06:19:37;97712.75;;;17.94;100.00
60589;BME280;46421;48.610;9.334;2022-08-19T06:22:02;97710.91;;;17.95;100.00
60589;BME280;46421;48.610;9.334;2022-08-19T06:24:29;97713.47;;;18.01;100.00
60589;BME280;46421;48.610;9.334;2022-08-19T06:26:55;97712.91;;;17.99;100.00
60589;BME280;46421;48.610;9.334;2022-08-19T06:29:24;97705.06;;;18.22;100.00
60589;BME280;46421;48.610;9.334;2022-08-19T06:31:53;97707.16;;;18.20;100.00
60589;BME280;46421;48.610;9.334;2022-08-19T06:34:19;97705.44;;;18.25;100.00
60589;BME280;46421;48.610;9.334;2022-08-19T06:36:47;97706.00;;;18.15;100.00
60589;BME280;46421;48.610;9.334;2022-08-19T06:39:15;97710.69;;;18.20;100.00
60589;BME280;46421;48.610;9.334;2022-08-19T06:41:44;97706.59;;;18.17;100.00
60589;BME280;46421;48.610;9.334;2022-08-19T06:44:10;97717.81;;;18.26;100.00
60589;BME280;46421;48.610;9.334;2022-08-19T06:46:38;97716.44;;;18.24;100.00
60589;BME280;46421;48.610;9.334;2022-08-19T06:49:04;97719.22;;;18.29;100.00
60589;BME280;46421;48.610;9.334;2022-08-19T06:51:30;97714.78;;;18.35;100.00
60589;BME280;46421;48.610;9.334;2022-08-19T06:53:55;97723.44;;;18.25;100.00
60589;BME280;46421;48.610;9.334;2022-08-19T06:56:24;97728.59;;;18.26;100.00
60589;BME280;46421;48.610;9.334;2022-08-19T06:58:50;97720.16;;;18.23;100.00
60589;BME280;46421;48.610;9.334;2022-08-19T07:01:16;97733.38;;;18.12;100.00
60589;BME280;46421;48.610;9.334;2022-08-19T07:03:41;97732.22;;;18.08;100.00
60589;BME280;46421;48.610;9.334;2022-08-19T07:06:12;97726.00;;;18.20;100.00
60589;BME280;46421;48.610;9.334;2022-08-19T07:08:38;97729.28;;;18.10;100.00
60589;BME280;46421;48.610;9.334;2022-08-19T07:11:08;97727.28;;;18.05;100.00
60589;BME280;46421;48.610;9.334;2022-08-19T07:13:35;97721.91;;;18.05;100.00
60589;BME280;46421;48.610;9.334;2022-08-19T07:16:04;97730.81;;;18.17;100.00
60589;BME280;46421;48.610;9.334;2022-08-19T07:18:29;97727.78;;;18.26;100.00
60589;BME280;46421;48.610;9.334;2022-08-19T07:21:04;97731.38;;;18.31;100.00
60589;BME280;46421;48.610;9.334;2022-08-19T07:23:30;97733.72;;;18.28;100.00
60589;BME280;46421;48.610;9.334;2022-08-19T07:25:55;97730.56;;;18.31;100.00
60589;BME280;46421;48.610;9.334;2022-08-19T07:28:21;97734.56;;;18.28;100.00
60589;BME280;46421;48.610;9.334;2022-08-19T07:30:46;97733.72;;;18.28;100.00
60589;BME280;46421;48.610;9.334;2022-08-19T07:33:11;97731.72;;;18.35;100.00
60589;BME280;46421;48.610;9.334;2022-08-19T07:35:36;97742.75;;;18.33;100.00
60589;BME280;46421;48.610;9.334;2022-08-19T07:38:02;97738.53;;;18.26;100.00
60589;BME280;46421;48.610;9.334;2022-08-19T07:40:27;97739.69;;;18.30;100.00
60589;BME280;46421;48.610;9.334;2022-08-19T07:42:52;97743.31;;;18.24;100.00
60589;BME280;46421;48.610;9.334;2022-08-19T07:45:18;97746.47;;;18.21;100.00
60589;BME280;46421;48.610;9.334;2022-08-19T07:47:43;97740.97;;;18.15;100.00
60589;BME280;46421;48.610;9.334;2022-08-19T07:50:10;97744.47;;;18.16;100.00
60589;BME280;46421;48.610;9.334;2022-08-19T07:52:36;97744.63;;;18.21;100.00
60589;BME280;46421;48.610;9.334;2022-08-19T07:55:03;97741.44;;;18.24;100.00
60589;BME280;46421;48.610;9.334;2022-08-19T07:57:29;97747.06;;;18.23;100.00
60589;BME280;46421;48.610;9.334;2022-08-19T07:59:54;97746.47;;;18.21;100.00
60589;BME280;46421;48.610;9.334;2022-08-19T08:02:19;97754.44;;;18.15;100.00
60589;BME280;46421;48.610;9.334;2022-08-19T08:04:45;97749.50;;;18.12;100.00
60589;BME280;46421;48.610;9.334;2022-08-19T08:07:10;97757.00;;;18.10;100.00
60589;BME280;46421;48.610;9.334;2022-08-19T08:09:38;97761.69;;;18.03;100.00
60589;BME280;46421;48.610;9.334;2022-08-19T08:12:22;97761.09;;;18.01;100.00
60589;BME280;46421;48.610;9.334;2022-08-19T08:14:50;97754.66;;;18.02;100.00
60589;BME280;46421;48.610;9.334;2022-08-19T08:17:18;97761.44;;;18.05;100.00
60589;BME280;46421;48.610;9.334;2022-08-19T08:19:44;97754.69;;;18.14;100.00
60589;BME280;46421;48.610;9.334;2022-08-19T08:22:13;97759.91;;;18.21;100.00
60589;BME280;46421;48.610;9.334;2022-08-19T08:24:39;97755.38;;;18.09;100.00
60589;BME280;46421;48.610;9.334;2022-08-19T08:27:04;97760.84;;;18.14;100.00
60589;BME280;46421;48.610;9.334;2022-08-19T08:29:30;97752.34;;;18.17;100.00
60589;BME280;46421;48.610;9.334;2022-08-19T08:31:56;97753.63;;;18.15;100.00
60589;BME280;46421;48.610;9.334;2022-08-19T08:34:22;97755.84;;;18.18;100.00
60589;BME280;46421;48.610;9.334;2022-08-19T08:36:47;97758.75;;;18.16;100.00
60589;BME280;46421;48.610;9.334;2022-08-19T08:39:15;97760.88;;;18.26;100.00
60589;BME280;46421;48.610;9.334;2022-08-19T08:41:52;97750.81;;;18.33;100.00
60589;BME280;46421;48.610;9.334;2022-08-19T08:44:40;97754.19;;;18.29;100.00
60589;BME280;46421;48.610;9.334;2022-08-19T08:47:14;97760.63;;;18.28;100.00
60589;BME280;46421;48.610;9.334;2022-08-19T08:50:02;97765.56;;;18.31;100.00
60589;BME280;46421;48.610;9.334;2022-08-19T08:52:35;97763.09;;;18.17;100.00
60589;BME280;46421;48.610;9.334;2022-08-19T08:55:08;97770.56;;;18.15;100.00
60589;BME280;46421;48.610;9.334;2022-08-19T09:00:17;97763.81;;;18.25;100.00
60589;BME280;46421;48.610;9.334;2022-08-19T09:02:43;97768.59;;;18.23;100.00
60589;BME280;46421;48.610;9.334;2022-08-19T09:05:10;97769.53;;;18.16;100.00
60589;BME280;46421;48.610;9.334;2022-08-19T09:07:42;97768.81;;;18.09;100.00
60589;BME280;46421;48.610;9.334;2022-08-19T09:10:21;97783.56;;;18.19;100.00
60589;BME280;46421;48.610;9.334;2022-08-19T09:12:57;97780.19;;;18.23;100.00
60589;BME280;46421;48.610;9.334;2022-08-19T09:15:36;97782.03;;;18.23;100.00
60589;BME280;46421;48.610;9.334;2022-08-19T09:18:04;97782.63;;;18.13;100.00
60589;BME280;46421;48.610;9.334;2022-08-19T09:20:30;97789.75;;;18.19;100.00
60589;BME280;46421;48.610;9.334;2022-08-19T09:22:55;97786.47;;;18.29;100.00
60589;BME280;46421;48.610;9.334;2022-08-19T09:25:22;97786.03;;;18.32;100.00
60589;BME280;46421;48.610;9.334;2022-08-19T09:27:49;97774.91;;;18.28;100.00
60589;BME280;46421;48.610;9.334;2022-08-19T09:30:18;97784.50;;;18.24;100.00
60589;BME280;46421;48.610;9.334;2022-08-19T09:32:44;97786.63;;;18.22;100.00
60589;BME280;46421;48.610;9.334;2022-08-19T09:35:11;97790.81;;;18.30;100.00
60589;BME280;46421;48.610;9.334;2022-08-19T09:37:36;97788.84;;;18.37;100.00
60589;BME280;46421;48.610;9.334;2022-08-19T09:40:03;97785.94;;;18.39;100.00
60589;BME280;46421;48.610;9.334;2022-08-19T09:42:28;97794.34;;;18.42;100.00
60589;BME280;46421;48.610;9.334;2022-08-19T09:44:53;97790.84;;;18.54;100.00
60589;BME280;46421;48.610;9.334;2022-08-19T09:47:19;97790.59;;;18.55;100.00
60589;BME280;46421;48.610;9.334;2022-08-19T09:49:44;97794.00;;;18.39;100.00
60589;BME280;46421;48.610;9.334;2022-08-19T09:52:10;97800.31;;;18.44;100.00
60589;BME280;46421;48.610;9.334;2022-08-19T09:54:37;97793.41;;;18.48;100.00
60589;BME280;46421;48.610;9.334;2022-08-19T09:57:03;97797.38;;;18.34;100.00
60589;BME280;46421;48.610;9.334;2022-08-19T09:59:29;97792.91;;;18.28;100.00
60589;BME280;46421;48.610;9.334;2022-08-19T10:01:54;97798.78;;;18.37;100.00
60589;BME280;46421;48.610;9.334;2022-08-19T10:04:20;97797.16;;;18.47;100.00
60589;BME280;46421;48.610;9.334;2022-08-19T10:06:46;97788.38;;;18.40;100.00
60589;BME280;46421;48.610;9.334;2022-08-19T10:09:11;97798.78;;;18.37;100.00
60589;BME280;46421;48.610;9.334;2022-08-19T10:11:40;97793.63;;;18.35;100.00
60589;BME280;46421;48.610;9.334;2022-08-19T10:14:06;97795.75;;;18.45;100.00
60589;BME280;46421;48.610;9.334;2022-08-19T10:16:32;97797.25;;;18.41;100.00
60589;BME280;46421;48.610;9.334;2022-08-19T10:18:58;97795.50;;;18.35;100.00
60589;BME280;46421;48.610;9.334;2022-08-19T10:21:27;97799.72;;;18.30;100.00
60589;BME280;46421;48.610;9.334;2022-08-19T10:23:56;97799.47;;;18.20;100.00
60589;BME280;46421;48.610;9.334;2022-08-19T10:26:25;97790.72;;;18.25;100.00
60589;BME280;46421;48.610;9.334;2022-08-19T10:28:50;97799.03;;;18.23;100.00
60589;BME280;46421;48.610;9.334;2022-08-19T10:31:19;97796.66;;;18.15;100.00
60589;BME280;46421;48.610;9.334;2022-08-19T10:33:47;97796.88;;;18.13;100.00
60589;BME280;46421;48.610;9.334;2022-08-19T10:36:18;97795.38;;;18.17;100.00
60589;BME280;46421;48.610;9.334;2022-08-19T10:38:45;97796.53;;;18.22;100.00
60589;BME280;46421;48.610;9.334;2022-08-19T10:41:16;97801.59;;;18.30;100.00
60589;BME280;46421;48.610;9.334;2022-08-19T10:43:42;97798.19;;;18.23;100.00
60589;BME280;46421;48.610;9.334;2022-08-19T10:46:10;97795.41;;;18.29;100.00
60589;BME280;46421;48.610;9.334;2022-08-19T10:48:36;97794.47;;;18.36;100.00
60589;BME280;46421;48.610;9.334;2022-08-19T10:51:03;97799.59;;;18.37;100.00
60589;BME280;46421;48.610;9.334;2022-08-19T10:53:28;97788.63;;;18.51;100.00
60589;BME280;46421;48.610;9.334;2022-08-19T10:55:53;97796.81;;;18.56;100.00
60589;BME280;46421;48.610;9.334;2022-08-19T10:58:20;97793.53;;;18.54;100.00
60589;BME280;46421;48.610;9.334;2022-08-19T11:00:57;97798.53;;;18.38;100.00
60589;BME280;46421;48.610;9.334;2022-08-19T11:03:23;97795.38;;;18.17;100.00
60589;BME280;46421;48.610;9.334;2022-08-19T11:06:00;97793.63;;;18.11;100.00
60589;BME280;46421;48.610;9.334;2022-08-19T11:08:26;97797.91;;;18.00;100.00
60589;BME280;46421;48.610;9.334;2022-08-19T11:10:53;97791.41;;;17.90;100.00
60589;BME280;46421;48.610;9.334;2022-08-19T11:13:19;97787.91;;;17.89;100.00
60589;BME280;46421;48.610;9.334;2022-08-19T11:15:45;97794.69;;;17.92;100.00
60589;BME280;46421;48.610;9.334;2022-08-19T11:18:10;97793.66;;;17.93;100.00
60589;BME280;46421;48.610;9.334;2022-08-19T11:20:35;97797.78;;;17.95;100.00
60589;BME280;46421;48.610;9.334;2022-08-19T11:23:00;97795.75;;;17.91;100.00
60589;BME280;46421;48.610;9.334;2022-08-19T11:25:26;97796.22;;;17.88;100.00
60589;BME280;46421;48.610;9.334;2022-08-19T11:27:51;97801.31;;;17.77;100.00
60589;BME280;46421;48.610;9.334;2022-08-19T11:30:16;97802.59;;;17.75;100.00
60589;BME280;46421;48.610;9.334;2022-08-19T11:32:42;97815.00;;;17.76;100.00
60589;BME280;46421;48.610;9.334;2022-08-19T11:35:07;97803.41;;;17.75;100.00
60589;BME280;46421;48.610;9.334;2022-08-19T11:37:33;97809.06;;;17.85;100.00
60589;BME280;46421;48.610;9.334;2022-08-19T11:39:58;97801.69;;;17.81;100.00
60589;BME280;46421;48.610;9.334;2022-08-19T11:42:23;97799.31;;;17.73;100.00
60589;BME280;46421;48.610;9.334;2022-08-19T11:44:49;97797.69;;;17.72;100.00
60589;BME280;46421;48.610;9.334;2022-08-19T11:47:14;97799.31;;;17.73;100.00
60589;BME280;46421;48.610;9.334;2022-08-19T11:49:40;97795.94;;;17.77;100.00
60589;BME280;46421;48.610;9.334;2022-08-19T11:52:05;97789.72;;;17.95;100.00
60589;BME280;46421;48.610;9.334;2022-08-19T11:54:37;97790.16;;;17.92;100.00
60589;BME280;46421;48.610;9.334;2022-08-19T11:57:03;97788.50;;;17.91;100.00
60589;BME280;46421;48.610;9.334;2022-08-19T11:59:29;97787.47;;;17.92;100.00
60589;BME280;46421;48.610;9.334;2022-08-19T12:01:54;97789.88;;;17.82;100.00
60589;BME280;46421;48.610;9.334;2022-08-19T12:04:20;97786.97;;;17.83;100.00
60589;BME280;46421;48.610;9.334;2022-08-19T12:06:45;97784.38;;;17.89;100.00
60589;BME280;46421;48.610;9.334;2022-08-19T12:09:10;97787.56;;;17.85;100.00
60589;BME280;46421;48.610;9.334;2022-08-19T12:11:37;97783.22;;;17.84;100.00
60589;BME280;46421;48.610;9.334;2022-08-19T12:14:03;97786.25;;;17.76;100.00
60589;BME280;46421;48.610;9.334;2022-08-19T12:16:30;97794.75;;;17.73;100.00
60589;BME280;46421;48.610;9.334;2022-08-19T12:18:56;97792.69;;;17.87;100.00
60589;BME280;46421;48.610;9.334;2022-08-19T12:21:25;97793.53;;;17.88;100.00
60589;BME280;46421;48.610;9.334;2022-08-19T12:23:51;97792.94;;;17.85;100.00
60589;BME280;46421;48.610;9.334;2022-08-19T12:26:17;97792.16;;;17.97;100.00
60589;BME280;46421;48.610;9.334;2022-08-19T12:28:43;97788.56;;;18.03;100.00
60589;BME280;46421;48.610;9.334;2022-08-19T12:31:09;97786.94;;;18.02;100.00
60589;BME280;46421;48.610;9.334;2022-08-19T12:33:34;97794.75;;;18.04;100.00
60589;BME280;46421;48.610;9.334;2022-08-19T12:36:03;97795.09;;;17.95;100.00
60589;BME280;46421;48.610;9.334;2022-08-19T12:38:29;97791.22;;;17.91;100.00
60589;BME280;46421;48.610;9.334;2022-08-19T12:40:54;97796.66;;;17.84;100.00
60589;BME280;46421;48.610;9.334;2022-08-19T12:43:20;97800.31;;;17.90;100.00
60589;BME280;46421;48.610;9.334;2022-08-19T12:45:45;97801.44;;;18.01;100.00
60589;BME280;46421;48.610;9.334;2022-08-19T12:48:11;97797.56;;;18.09;100.00
60589;BME280;46421;48.610;9.334;2022-08-19T12:50:39;97791.81;;;18.05;100.00
60589;BME280;46421;48.610;9.334;2022-08-19T12:53:04;97792.09;;;18.15;100.00